Decoded Metar for CYND (GATINEAU in QC, CANADA) (IATA:YND) | Meteo·Mobile Aviation Weather
aviador You're here:

CYND Decoded Metar

GATINEAU in QC, CANADA
Report Time2018-12-10 16:00:00
UTC Time2018-12-10 16:19:07
Flight Rules vfr VFR
Wind010° at 02 kt
W.Decomp.*RWY 09: 0.8 kt HW 1.8 kt LCW
W.Rank010° ranks 28
Current wind is below 010° avg. (5.3)
Visibility9999 m
Phenomena:N/A
Clouds:Few 030 Hf
Few 220 Hf
Expected CloudBase > 2,800 ft AGL from Temp-Dew spread
CeilingNone
Temp-8°C (ISA -23)
Dew Point-15°C (58% RH)
AAT-12.1°C
QNH1025 hPa
Density Alt-2,982 ft
Elevation210 ft
Report Wrong Elevation
Raw Report
CYND 101600Z 01002KT 15SM FEW030 FEW220 M08/M15 A3026 RMK SC1CI1
SC TR SLP254=

Extra information for CYND:More info

Metar Taf Metar & Taf Last 4 Metars F.Rules Stats Wind Profile Meteogram Temp Stats Airport Information Weather charts Add Link Nearby VenuesMetar ALERT Operation Metar Decoded Social comments